Time;durP1;ratioP1;P1;durP2;ratioP2;P2;SDS_P1;SDS_P2;PMS_P1;PMS_P2;Temp;Humidity;BMP_temperature;BMP_pressure;BME280_temperature;BME280_humidity;BME280_pressure;Samples;Min_cycle;Max_cycle;Signal;HPM_P1;HPM_P2
2021/07/10 00:02:22;;;;;;;15.32;7.97;;;;;;;20.55;65.32;100329.44;5093845;28;20040;-78
2021/07/10 00:04:49;;;;;;;15.20;8.50;;;;;;;20.60;65.59;100340.69;5081717;28;20035;-76
2021/07/10 00:07:15;;;;;;;18.80;8.02;;;;;;;20.57;65.48;100335.50;5089829;28;20051;-78
2021/07/10 00:09:41;;;;;;;14.55;7.78;;;;;;;20.55;65.82;100328.59;5087752;28;20056;-77
2021/07/10 00:12:07;;;;;;;14.88;8.70;;;;;;;20.40;65.56;100314.22;5110203;28;20111;-77
2021/07/10 00:14:33;;;;;;;14.00;7.50;;;;;;;20.44;65.71;100331.69;5094476;28;20059;-78
2021/07/10 00:16:59;;;;;;;12.30;7.90;;;;;;;20.31;65.82;100316.31;5093989;28;20118;-76
2021/07/10 00:19:24;;;;;;;16.88;7.53;;;;;;;20.42;65.98;100334.38;5095247;28;20035;-76
2021/07/10 00:21:51;;;;;;;18.17;7.97;;;;;;;20.37;65.91;100324.91;5094397;28;20368;-78
2021/07/10 00:24:17;;;;;;;11.40;7.93;;;;;;;20.35;66.32;100324.13;5077077;28;20039;-77
2021/07/10 00:26:43;;;;;;;17.45;7.57;;;;;;;20.31;66.43;100318.13;5097151;28;20040;-78
2021/07/10 00:29:09;;;;;;;12.50;7.90;;;;;;;20.24;66.38;100314.88;5085915;28;20043;-78
2021/07/10 00:31:35;;;;;;;14.68;8.13;;;;;;;20.17;66.46;100300.19;5095612;28;20082;-78
2021/07/10 00:34:01;;;;;;;14.00;8.10;;;;;;;20.32;66.46;100335.69;5078780;28;20044;-77
2021/07/10 00:36:27;;;;;;;14.63;7.80;;;;;;;20.32;66.61;100335.69;5098413;28;20040;-76
2021/07/10 00:38:53;;;;;;;14.23;7.13;;;;;;;20.20;66.46;100323.84;5080043;28;20514;-76
2021/07/10 00:41:20;;;;;;;11.73;7.50;;;;;;;20.22;66.54;100332.56;5077946;28;20055;-78
2021/07/10 00:43:48;;;;;;;15.32;7.97;;;;;;;20.15;66.53;100324.03;5093765;28;20036;-76
2021/07/10 00:46:18;;;;;;;16.30;8.38;;;;;;;20.20;66.89;100331.75;5096225;28;20055;-77
2021/07/10 00:48:44;;;;;;;17.73;8.55;;;;;;;20.21;66.84;100340.53;5095829;28;20040;-77
2021/07/10 00:51:10;;;;;;;15.02;7.82;;;;;;;20.19;67.01;100339.75;5093150;28;20494;-76
2021/07/10 00:53:36;;;;;;;13.32;8.05;;;;;;;20.06;66.89;100326.19;5076753;28;20032;-76
2021/07/10 00:56:03;;;;;;;16.80;7.82;;;;;;;20.15;67.20;100342.53;5077911;28;20139;-77
2021/07/10 00:58:29;;;;;;;13.20;8.18;;;;;;;20.06;67.30;100329.69;5103634;28;20054;-78
2021/07/10 01:00:56;;;;;;;14.52;7.57;;;;;;;20.04;67.23;100328.03;5105000;28;20036;-76
2021/07/10 01:03:22;;;;;;;17.65;7.93;;;;;;;20.01;67.59;100334.28;5104944;28;20051;-78
2021/07/10 01:05:48;;;;;;;17.35;8.05;;;;;;;19.99;67.31;100328.19;5105505;28;20044;-75
2021/07/10 01:08:13;;;;;;;13.75;8.13;;;;;;;20.04;67.46;100339.44;5106517;28;20047;-77
2021/07/10 01:10:39;;;;;;;17.05;7.72;;;;;;;20.04;67.72;100338.59;5104081;28;20032;-75
2021/07/10 01:13:06;;;;;;;20.23;8.43;;;;;;;19.99;67.71;100331.72;5088656;28;20040;-76
2021/07/10 01:15:32;;;;;;;14.13;8.38;;;;;;;20.11;67.64;100351.50;5105502;28;20502;-77
2021/07/10 01:17:58;;;;;;;13.07;7.57;;;;;;;20.03;67.72;100335.06;5105605;28;20044;-77
2021/07/10 01:20:26;;;;;;;15.10;7.75;;;;;;;20.08;67.57;100346.31;5104466;28;20047;-76
2021/07/10 01:22:53;;;;;;;11.93;7.50;;;;;;;20.10;67.43;100343.59;5102162;28;20069;-75
2021/07/10 01:25:21;;;;;;;14.23;7.80;;;;;;;20.11;67.59;100338.28;5107135;28;20039;-74
2021/07/10 01:27:48;;;;;;;10.45;7.47;;;;;;;20.10;67.37;100348.91;5105335;28;20476;-75
2021/07/10 01:30:16;;;;;;;13.68;8.27;;;;;;;20.08;67.55;100342.84;5088028;28;20040;-75
2021/07/10 01:32:45;;;;;;;16.33;8.13;;;;;;;20.05;67.76;100335.03;5105526;28;20040;-76
2021/07/10 01:35:11;;;;;;;13.38;8.23;;;;;;;20.17;67.72;100364.47;5087581;28;20040;-76
2021/07/10 01:37:38;;;;;;;11.43;7.45;;;;;;;20.11;67.87;100346.22;5104694;28;20040;-76
2021/07/10 01:40:07;;;;;;;18.63;8.05;;;;;;;20.13;67.90;100349.66;5103956;28;20060;-77
2021/07/10 01:42:33;;;;;;;16.25;7.90;;;;;;;20.20;67.98;100346.75;5095044;28;20412;-76
2021/07/10 01:45:00;;;;;;;15.77;8.20;;;;;;;20.25;67.92;100345.66;5094155;28;20035;-78
2021/07/10 01:47:26;;;;;;;16.50;8.15;;;;;;;20.22;67.68;100323.75;5060862;28;20035;-78
2021/07/10 01:49:52;;;;;;;19.40;8.30;;;;;;;20.46;67.99;100351.81;5100584;28;20040;-76
2021/07/10 01:52:18;;;;;;;18.52;8.35;;;;;;;20.53;67.48;100346.28;5106233;28;20048;-75
2021/07/10 01:54:44;;;;;;;19.13;9.23;;;;;;;20.69;67.46;100355.28;5107988;28;20092;-76
2021/07/10 01:57:11;;;;;;;15.70;8.15;;;;;;;20.72;67.22;100341.94;5116564;28;20107;-76
2021/07/10 01:59:40;;;;;;;17.73;8.77;;;;;;;20.76;66.96;100338.28;5112550;28;20092;-75
2021/07/10 02:02:06;;;;;;;15.82;8.27;;;;;;;20.99;67.28;100351.41;5109622;28;20040;-76
2021/07/10 02:04:42;;;;;;;19.95;8.13;;;;;;;20.97;66.94;100324.19;5105516;28;20084;-75
2021/07/10 02:07:08;;;;;;;18.10;8.45;;;;;;;21.12;66.75;100334.09;5097033;28;20048;-76
2021/07/10 02:09:34;;;;;;;20.67;8.55;;;;;;;21.27;66.60;100327.28;5095586;28;20052;-78
2021/07/10 02:12:00;;;;;;;22.30;9.00;;;;;;;21.30;66.42;100321.81;5097630;28;20389;-77
2021/07/10 02:14:26;;;;;;;22.02;8.35;;;;;;;21.37;65.84;100325.91;5097573;28;20044;-77
2021/07/10 02:16:52;;;;;;;17.05;9.23;;;;;;;21.45;65.83;100345.88;5104745;28;20044;-77
2021/07/10 02:19:18;;;;;;;17.02;8.85;;;;;;;21.40;66.26;100326.69;5083598;28;20044;-80
2021/07/10 02:21:43;;;;;;;19.13;9.10;;;;;;;21.49;65.85;100335.06;5063598;28;20047;-77
2021/07/10 02:24:09;;;;;;;16.40;8.82;;;;;;;21.48;66.09;100329.88;5097522;28;20109;-79
2021/07/10 02:26:36;;;;;;;20.45;8.75;;;;;;;21.53;66.03;100325.19;5095722;28;20031;-78
2021/07/10 02:29:06;;;;;;;18.40;9.32;;;;;;;21.58;65.69;100325.84;5095775;28;20046;-75
2021/07/10 02:31:33;;;;;;;20.10;9.48;;;;;;;21.67;66.28;100336.06;5097956;28;20066;-77
2021/07/10 02:33:59;;;;;;;16.60;9.23;;;;;;;21.73;65.96;100337.53;5078924;28;20139;-76
2021/07/10 02:36:25;;;;;;;21.70;8.90;;;;;;;21.73;66.18;100332.25;5096065;28;20071;-76
2021/07/10 02:38:51;;;;;;;21.38;9.60;;;;;;;21.75;66.69;100340.97;5095761;28;20071;-77
2021/07/10 02:41:17;;;;;;;23.50;9.23;;;;;;;21.68;66.47;100310.41;5095426;28;20036;-77
2021/07/10 02:43:43;;;;;;;22.17;9.27;;;;;;;21.76;66.57;100315.34;5078148;28;20130;-79
2021/07/10 02:46:09;;;;;;;25.63;10.23;;;;;;;21.71;66.78;100309.44;5096447;28;20032;-78
2021/07/10 02:48:35;;;;;;;17.40;8.88;;;;;;;21.82;66.82;100317.72;5096671;28;20039;-76
2021/07/10 02:51:01;;;;;;;20.35;9.35;;;;;;;21.89;66.63;100323.56;5078084;28;20415;-77
2021/07/10 02:53:27;;;;;;;15.27;8.73;;;;;;;21.93;67.05;100323.38;5078588;28;20040;-78
2021/07/10 02:55:53;;;;;;;21.40;9.45;;;;;;;22.01;66.94;100320.34;5078695;28;20040;-76
2021/07/10 02:58:19;;;;;;;25.02;9.05;;;;;;;22.19;66.72;100315.06;5096893;28;20040;-77
2021/07/10 03:00:45;;;;;;;23.25;10.07;;;;;;;22.39;66.53;100322.03;5104003;28;20039;-77
2021/07/10 03:03:11;;;;;;;20.77;9.73;;;;;;;22.53;66.22;100319.56;5097404;28;20085;-79
2021/07/10 03:05:38;;;;;;;18.90;9.10;;;;;;;22.72;65.96;100323.94;5095997;28;20055;-76
2021/07/10 03:08:05;;;;;;;16.95;9.15;;;;;;;22.87;65.54;100320.47;5078178;28;20229;-78
2021/07/10 03:10:32;;;;;;;16.48;9.65;;;;;;;23.00;65.07;100322.50;5094412;28;20052;-78
2021/07/10 03:12:58;;;;;;;18.42;8.82;;;;;;;23.14;65.14;100319.97;5077697;28;20040;-78
2021/07/10 03:15:26;;;;;;;24.45;9.50;;;;;;;23.23;64.91;100320.47;5095284;28;20151;-78
2021/07/10 03:17:53;;;;;;;17.33;8.20;;;;;;;23.30;65.05;100316.50;5095374;28;20126;-77
2021/07/10 03:20:24;;;;;;;17.92;9.77;;;;;;;23.34;64.69;100299.47;5100003;28;20044;-77
2021/07/10 03:22:50;;;;;;;17.13;9.05;;;;;;;23.53;64.76;100314.41;5078135;28;20149;-78
2021/07/10 03:25:17;;;;;;;17.85;8.35;;;;;;;23.65;64.91;100311.09;5094995;28;20043;-77
2021/07/10 03:27:45;;;;;;;16.40;8.82;;;;;;;23.76;64.55;100300.69;5094390;28;20122;-77
2021/07/10 03:30:14;;;;;;;16.60;8.80;;;;;;;23.91;64.57;100300.78;5094983;28;20048;-78
2021/07/10 03:32:40;;;;;;;20.75;8.75;;;;;;;24.08;64.19;100317.59;5094070;28;20068;-80
2021/07/10 03:35:11;;;;;;;18.42;8.55;;;;;;;23.88;63.87;100267.25;5094495;28;20101;-76
2021/07/10 03:37:37;;;;;;;;;;;;;;;24.20;63.53;100304.47;5094282;28;20043;-78
2021/07/10 03:40:12;;;;;;;15.95;8.05;;;;;;;24.21;63.30;100300.00;5094102;28;19916;-78
2021/07/10 03:42:40;;;;;;;17.02;9.32;;;;;;;24.22;62.73;100301.69;5077865;28;20506;-76
2021/07/10 03:45:08;;;;;;;19.60;8.60;;;;;;;24.29;62.71;100303.06;5077557;28;20094;-77
2021/07/10 03:47:34;;;;;;;17.10;8.20;;;;;;;24.37;62.36;100289.31;5060905;28;20147;-78
2021/07/10 03:50:01;;;;;;;19.42;8.40;;;;;;;24.61;61.83;100305.59;5095983;28;20047;-78
2021/07/10 03:52:26;;;;;;;19.40;8.20;;;;;;;24.84;61.34;100297.22;5077444;28;20032;-80
2021/07/10 03:54:52;;;;;;;21.27;9.27;;;;;;;25.10;60.20;100303.59;5081291;28;20058;-76
2021/07/10 03:57:18;;;;;;;22.65;8.23;;;;;;;25.28;59.89;100301.63;5095690;28;20122;-77
2021/07/10 03:59:44;;;;;;;17.40;8.07;;;;;;;25.39;59.04;100282.28;5095076;28;20067;-77
2021/07/10 04:02:10;;;;;;;20.70;10.00;;;;;;;25.77;58.55;100297.66;5076701;28;20131;-80
2021/07/10 04:04:35;;;;;;;18.10;8.63;;;;;;;25.97;57.77;100282.16;5094748;28;20043;-79
2021/07/10 04:07:01;;;;;;;24.42;8.27;;;;;;;26.21;56.88;100295.72;5099694;28;20040;-77
2021/07/10 04:09:27;;;;;;;22.45;8.95;;;;;;;26.36;56.27;100288.50;5097435;28;20137;-78
2021/07/10 04:11:53;;;;;;;22.80;7.95;;;;;;;26.50;55.46;100270.69;5095237;28;20126;-79
2021/07/10 04:14:19;;;;;;;22.45;7.22;;;;;;;26.77;55.13;100266.13;5094950;28;20039;-78
2021/07/10 04:16:46;;;;;;;19.95;7.85;;;;;;;27.08;54.39;100263.13;5094684;28;20048;-78
2021/07/10 04:19:12;;;;;;;20.15;7.75;;;;;;;27.36;53.13;100278.03;5094125;28;20077;-79
2021/07/10 04:21:37;;;;;;;23.65;7.40;;;;;;;27.50;52.82;100257.50;5095187;28;20044;-78
2021/07/10 04:24:05;;;;;;;18.30;6.80;;;;;;;27.73;51.99;100271.00;5095062;28;20448;-78
2021/07/10 04:26:31;;;;;;;16.02;5.90;;;;;;;27.89;51.64;100278.72;5093314;28;20032;-78
2021/07/10 04:28:57;;;;;;;12.27;6.13;;;;;;;28.08;51.02;100276.38;5093919;28;20127;-76
2021/07/10 04:31:22;;;;;;;9.88;5.53;;;;;;;28.09;49.68;100263.88;5094923;28;20126;-79
2021/07/10 04:33:48;;;;;;;10.57;4.93;;;;;;;28.22;49.36;100266.50;5094570;28;20047;-77
2021/07/10 04:36:14;;;;;;;9.00;5.78;;;;;;;28.34;48.86;100270.06;5093827;28;20535;-76
2021/07/10 04:38:40;;;;;;;14.43;5.28;;;;;;;28.36;48.23;100268.97;5094976;28;20043;-76
2021/07/10 04:41:06;;;;;;;7.95;5.20;;;;;;;28.33;48.06;100257.66;5095242;28;20044;-76
2021/07/10 04:43:34;;;;;;;7.55;5.10;;;;;;;28.38;47.35;100261.69;5095298;28;20086;-76
2021/07/10 04:46:01;;;;;;;8.80;4.50;;;;;;;28.40;47.29;100266.91;5095405;28;20517;-77
2021/07/10 04:48:28;;;;;;;15.27;5.47;;;;;;;28.35;47.24;100243.19;5095138;28;20040;-79
2021/07/10 04:50:57;;;;;;;8.48;4.25;;;;;;;28.72;46.71;100260.91;5080768;28;20046;-77
2021/07/10 04:53:23;;;;;;;14.77;4.70;;;;;;;29.07;46.01;100264.47;5094099;28;20212;-79
2021/07/10 04:55:48;;;;;;;17.85;4.82;;;;;;;29.36;45.17;100255.94;5092195;28;20044;-78
2021/07/10 04:58:15;;;;;;;9.52;4.13;;;;;;;29.82;44.62;100264.72;5095298;28;20040;-77
2021/07/10 05:00:41;;;;;;;10.85;4.60;;;;;;;30.18;43.63;100250.09;5096376;28;20126;-77
2021/07/10 05:03:06;;;;;;;9.60;4.43;;;;;;;30.57;42.76;100262.91;5094296;28;20063;-78
2021/07/10 05:05:32;;;;;;;9.30;4.18;;;;;;;30.73;41.89;100253.56;5094963;28;20419;-77
2021/07/10 05:07:59;;;;;;;6.60;4.10;;;;;;;31.01;41.44;100251.13;5092619;28;20407;-79
2021/07/10 05:10:25;;;;;;;9.23;4.65;;;;;;;31.04;40.79;100235.59;5073300;28;20056;-78
2021/07/10 05:12:51;;;;;;;7.40;4.90;;;;;;;31.20;40.28;100247.69;5093570;28;20464;-77
2021/07/10 05:15:17;;;;;;;7.03;4.68;;;;;;;31.36;40.18;100255.22;5099818;28;20043;-77
2021/07/10 05:17:43;;;;;;;8.68;4.68;;;;;;;31.31;39.52;100246.72;5093329;28;20031;-77
2021/07/10 05:20:10;;;;;;;7.40;4.80;;;;;;;31.24;39.89;100249.13;5094242;28;20050;-79
2021/07/10 05:22:36;;;;;;;12.20;5.30;;;;;;;30.98;39.68;100238.81;5076925;28;20714;-77
2021/07/10 05:25:04;;;;;;;12.00;5.68;;;;;;;30.90;39.71;100252.06;5094171;28;20050;-78
2021/07/10 05:27:29;;;;;;;8.95;5.68;;;;;;;30.83;39.63;100237.50;5075201;28;20036;-77
2021/07/10 05:29:55;;;;;;;7.60;4.60;;;;;;;30.93;39.97;100243.72;5075424;28;20128;-78
2021/07/10 05:32:21;;;;;;;8.68;4.45;;;;;;;31.15;39.22;100236.50;5078421;28;20471;-79
2021/07/10 05:34:47;;;;;;;8.90;4.88;;;;;;;31.42;38.81;100238.56;5097496;28;20055;-79
2021/07/10 05:37:13;;;;;;;11.10;4.80;;;;;;;31.58;37.89;100229.09;5097456;28;20060;-79
2021/07/10 05:39:48;;;;;;;10.80;4.68;;;;;;;31.68;38.24;100238.00;5099776;28;20048;-77
2021/07/10 05:42:14;;;;;;;9.52;5.07;;;;;;;31.87;38.23;100230.97;5081228;28;20059;-79
2021/07/10 05:44:40;;;;;;;7.57;4.82;;;;;;;32.21;37.32;100228.69;5096351;28;20080;-77
2021/07/10 05:47:06;;;;;;;10.93;5.05;;;;;;;32.45;37.34;100224.66;5096107;28;20035;-78
2021/07/10 05:49:32;;;;;;;14.57;4.97;;;;;;;32.87;36.64;100235.06;5079442;28;20093;-79
2021/07/10 05:51:58;;;;;;;12.18;5.20;;;;;;;33.26;35.97;100204.34;5099817;28;20041;-78
2021/07/10 05:54:24;;;;;;;11.85;4.72;;;;;;;34.23;34.98;100217.22;5110096;28;20039;-80
2021/07/10 05:56:50;;;;;;;10.82;5.15;;;;;;;35.94;33.61;100224.47;5067181;28;20046;-78
2021/07/10 05:59:16;;;;;;;10.40;5.28;;;;;;;37.67;30.73;100214.94;5079094;28;20110;-77
2021/07/10 06:01:42;;;;;;;10.85;4.82;;;;;;;39.47;28.65;100219.59;5097079;28;20040;-77
2021/07/10 06:04:08;;;;;;;12.75;5.70;;;;;;;40.76;26.65;100225.88;5095629;28;20036;-79
2021/07/10 06:06:34;;;;;;;8.55;5.10;;;;;;;41.81;25.58;100218.44;5095665;28;20507;-77
2021/07/10 06:08:59;;;;;;;7.28;4.95;;;;;;;42.62;23.92;100200.03;5060452;28;20051;-79
2021/07/10 06:11:26;;;;;;;8.85;4.93;;;;;;;43.41;22.63;100199.88;5096486;28;20047;-78
2021/07/10 06:13:52;;;;;;;8.27;5.00;;;;;;;44.16;21.61;100216.59;5095914;28;20380;-78
2021/07/10 06:16:18;;;;;;;6.55;4.50;;;;;;;43.98;21.63;100223.69;5097186;28;20044;-77
2021/07/10 06:18:44;;;;;;;6.55;5.25;;;;;;;44.18;21.21;100229.00;5096882;28;20031;-77
2021/07/10 06:21:10;;;;;;;7.57;4.82;;;;;;;45.25;20.16;100210.47;5097984;28;20048;-79
2021/07/10 06:23:35;;;;;;;9.55;5.07;;;;;;;45.80;19.70;100219.53;5101433;28;20042;-78
2021/07/10 06:26:02;;;;;;;9.50;5.07;;;;;;;46.64;18.70;100217.59;5096002;28;20039;-78
2021/07/10 06:28:27;;;;;;;5.63;4.72;;;;;;;47.17;17.94;100214.78;5095334;28;20044;-79
2021/07/10 06:30:54;;;;;;;6.90;5.15;;;;;;;47.90;16.78;100217.69;5096027;28;20054;-79
2021/07/10 06:33:19;;;;;;;9.23;4.82;;;;;;;48.43;16.57;100214.63;5095487;28;20051;-79
2021/07/10 06:35:45;;;;;;;6.75;5.15;;;;;;;49.25;15.51;100217.47;5078330;28;20040;-80
2021/07/10 06:38:11;;;;;;;6.35;4.82;;;;;;;49.96;14.96;100223.91;5078039;28;20109;-78
2021/07/10 06:40:37;;;;;;;9.48;5.15;;;;;;;50.16;14.35;100201.06;5095822;28;20063;-78
2021/07/10 06:43:04;;;;;;;10.80;5.10;;;;;;;50.93;13.56;100211.63;5093837;28;20127;-78
2021/07/10 06:45:31;;;;;;;6.85;5.03;;;;;;;51.83;12.99;100214.97;5095763;28;20073;-78
2021/07/10 06:48:01;;;;;;;10.25;5.07;;;;;;;52.27;13.14;100201.59;5094730;28;20429;-79
2021/07/10 06:50:30;;;;;;;10.13;5.57;;;;;;;52.81;12.01;100221.34;5095406;28;20036;-79
2021/07/10 06:52:56;;;;;;;7.47;5.38;;;;;;;52.75;11.93;100198.31;5098509;28;20067;-83
2021/07/10 06:55:21;;;;;;;7.80;5.35;;;;;;;53.16;11.31;100217.50;5078813;28;20447;-78
2021/07/10 06:57:48;;;;;;;7.78;5.07;;;;;;;53.56;11.95;100208.28;5095203;28;20089;-78
2021/07/10 07:00:17;;;;;;;7.82;5.60;;;;;;;54.10;11.05;100213.88;5096950;28;20432;-79
2021/07/10 07:02:43;;;;;;;11.20;5.45;;;;;;;54.41;10.83;100208.75;5094888;28;20060;-78
2021/07/10 07:05:11;;;;;;;11.27;5.93;;;;;;;54.59;10.58;100209.91;5095141;28;20393;-77
2021/07/10 07:07:38;;;;;;;8.85;5.82;;;;;;;55.01;10.17;100196.25;5093631;28;20511;-76
2021/07/10 07:10:06;;;;;;;6.78;5.28;;;;;;;55.55;9.88;100204.25;5075581;28;20051;-77
2021/07/10 07:12:33;;;;;;;10.00;5.97;;;;;;;55.89;9.41;100203.09;5094377;28;20046;-78
2021/07/10 07:14:58;;;;;;;9.43;5.70;;;;;;;56.17;9.47;100189.13;5094635;28;20036;-79
2021/07/10 07:17:24;;;;;;;13.93;6.10;;;;;;;56.31;8.99;100183.56;5094604;28;20093;-78
2021/07/10 07:19:51;;;;;;;13.98;6.63;;;;;;;56.48;9.33;100202.44;5077365;28;20093;-76
2021/07/10 07:22:17;;;;;;;10.80;6.35;;;;;;;56.78;8.89;100185.31;5094521;28;20051;-77
2021/07/10 07:24:43;;;;;;;11.75;5.93;;;;;;;57.11;8.32;100202.66;5095337;28;20052;-79
2021/07/10 07:27:09;;;;;;;7.18;5.53;;;;;;;57.35;8.80;100203.50;5095829;28;20058;-77
2021/07/10 07:29:36;;;;;;;7.68;6.20;;;;;;;57.58;8.54;100207.94;5099460;28;20063;-76
2021/07/10 07:32:04;;;;;;;9.07;6.10;;;;;;;57.98;7.60;100218.28;5096268;28;20510;-77
2021/07/10 07:34:30;;;;;;;8.35;5.45;;;;;;;58.20;7.36;100196.97;5100766;28;20111;-77
2021/07/10 07:36:57;;;;;;;6.50;5.90;;;;;;;58.21;7.36;100204.22;5106789;28;20048;-76
2021/07/10 07:39:23;;;;;;;7.72;5.75;;;;;;;57.73;7.60;100194.66;5108248;28;20099;-79
2021/07/10 07:41:51;;;;;;;8.45;5.90;;;;;;;56.76;8.26;100190.38;5106235;28;20089;-77
2021/07/10 07:44:17;;;;;;;9.32;5.95;;;;;;;57.10;7.92;100189.03;5079625;28;20538;-78
2021/07/10 07:46:43;;;;;;;8.68;6.75;;;;;;;57.67;7.95;100195.94;5096451;28;20040;-78
2021/07/10 07:49:09;;;;;;;7.47;6.50;;;;;;;58.41;7.82;100193.53;5078941;28;20085;-79
2021/07/10 07:51:39;;;;;;;7.13;5.78;;;;;;;58.92;6.95;100208.72;5079295;28;20427;-79
2021/07/10 07:54:05;;;;;;;9.45;5.55;;;;;;;58.73;7.44;100199.88;5079184;28;20136;-78
2021/07/10 07:56:40;;;;;;;6.70;6.10;;;;;;;58.93;7.01;100190.78;5098601;28;20075;-79
2021/07/10 07:59:09;;;;;;;8.13;6.47;;;;;;;58.31;6.84;100189.91;5102040;28;20050;-79
2021/07/10 08:01:44;;;;;;;8.18;5.97;;;;;;;58.81;7.29;100187.84;5081374;28;20068;-79
2021/07/10 08:04:10;;;;;;;10.50;6.70;;;;;;;58.32;6.36;100179.53;5094191;28;20036;-80
2021/07/10 08:06:36;;;;;;;17.90;7.20;;;;;;;56.06;7.86;100163.41;5093075;28;20085;-79
2021/07/10 08:09:03;;;;;;;8.93;6.45;;;;;;;56.59;8.01;100163.97;5091242;28;20052;-78
2021/07/10 08:11:29;;;;;;;10.43;6.13;;;;;;;57.23;8.07;100157.41;5094374;28;20491;-79
2021/07/10 08:13:55;;;;;;;11.50;6.60;;;;;;;57.64;7.40;100161.06;5093514;28;20051;-77
2021/07/10 08:16:21;;;;;;;9.20;6.53;;;;;;;57.88;7.40;100146.69;5094170;28;20040;-79
2021/07/10 08:18:47;;;;;;;8.02;6.18;;;;;;;57.99;7.44;100163.97;5073155;28;20040;-77
2021/07/10 08:21:17;;;;;;;12.00;6.22;;;;;;;55.49;8.20;100121.88;5039608;28;20052;-79
2021/07/10 08:27:24;;;;;;;7.97;6.25;;;;;;;53.54;9.13;100136.31;5073087;28;20408;-78
2021/07/10 08:29:52;;;;;;;11.52;5.50;;;;;;;52.76;9.37;100126.97;5045616;28;20179;-77
2021/07/10 08:32:18;;;;;;;8.63;6.20;;;;;;;53.66;9.65;100135.13;5072659;28;20074;-78
2021/07/10 08:34:44;;;;;;;6.50;5.85;;;;;;;53.92;9.32;100137.59;5074087;28;20071;-77
2021/07/10 08:37:10;;;;;;;7.05;5.90;;;;;;;53.08;9.23;100140.34;5074755;28;20043;-77
2021/07/10 08:39:36;;;;;;;7.40;6.18;;;;;;;52.45;9.77;100132.69;5073808;28;20062;-77
2021/07/10 08:42:02;;;;;;;7.95;6.10;;;;;;;53.32;9.27;100142.38;5089485;28;20039;-78
2021/07/10 08:44:34;;;;;;;6.32;5.80;;;;;;;54.49;8.80;100141.31;5073764;28;20475;-78
2021/07/10 08:47:01;;;;;;;6.95;6.10;;;;;;;55.10;8.50;100126.75;5072853;28;20622;-77
2021/07/10 08:49:29;;;;;;;7.95;6.53;;;;;;;54.81;8.46;100121.38;5090471;28;20044;-77
2021/07/10 08:51:55;;;;;;;11.40;6.28;;;;;;;54.09;8.35;100118.47;5072652;28;20080;-78
2021/07/10 08:54:21;;;;;;;6.82;6.28;;;;;;;55.04;8.59;100136.31;5074141;28;20040;-78
2021/07/10 08:56:47;;;;;;;6.70;6.05;;;;;;;55.57;7.92;100137.88;5057746;28;20526;-76
2021/07/10 08:59:13;;;;;;;8.43;6.75;;;;;;;56.59;7.71;100130.47;5077642;28;20063;-78
2021/07/10 09:01:40;;;;;;;10.18;6.55;;;;;;;57.41;6.98;100133.16;5060335;28;20063;-79
2021/07/10 09:04:06;;;;;;;8.25;6.65;;;;;;;57.21;7.53;100130.94;5079593;28;20036;-77
2021/07/10 09:06:32;;;;;;;8.13;7.43;;;;;;;56.27;7.34;100130.34;5094010;28;20047;-77
2021/07/10 09:09:00;;;;;;;6.90;6.35;;;;;;;54.48;8.36;100125.75;5077571;28;20056;-78
2021/07/10 09:11:26;;;;;;;8.95;6.10;;;;;;;52.62;9.08;100118.47;5094961;28;20110;-78
2021/07/10 09:13:54;;;;;;;9.18;6.43;;;;;;;50.88;10.01;100100.88;5076452;28;20127;-78
2021/07/10 09:16:37;;;;;;;6.97;6.15;;;;;;;51.10;10.39;100096.16;5094010;28;20051;-77
2021/07/10 09:19:05;;;;;;;6.68;6.03;;;;;;;51.78;10.05;100097.75;5076632;28;20063;-78
2021/07/10 09:21:46;;;;;;;11.48;6.15;;;;;;;52.42;9.50;100054.47;5075869;28;20040;-77
2021/07/10 09:24:36;;;;;;;6.65;6.05;;;;;;;52.08;9.48;100098.78;5058793;28;20032;-77
2021/07/10 09:27:07;;;;;;;8.45;6.82;;;;;;;51.72;10.17;100085.00;5092580;28;20036;-77
2021/07/10 09:29:39;;;;;;;7.35;6.40;;;;;;;52.46;10.15;100092.72;5093517;28;20047;-78
2021/07/10 09:32:08;;;;;;;7.28;6.63;;;;;;;53.13;9.17;100108.91;5094425;28;20047;-77
2021/07/10 09:34:45;;;;;;;8.27;7.57;;;;;;;53.60;9.13;100101.81;5075140;28;20134;-78
2021/07/10 09:37:14;;;;;;;9.13;6.68;;;;;;;54.16;8.62;100087.50;5093592;28;20087;-78
2021/07/10 09:40:14;;;;;;;7.60;6.30;;;;;;;54.99;8.34;100102.97;5075094;28;20044;-77
2021/07/10 09:42:45;;;;;;;9.40;6.65;;;;;;;54.91;8.32;100093.34;5092718;28;20036;-77
2021/07/10 09:45:23;;;;;;;6.93;6.38;;;;;;;55.27;8.45;100087.19;5076636;28;20135;-78
2021/07/10 09:47:50;;;;;;;;;;;;;;;55.55;8.33;100092.75;5100506;28;20051;-77
2021/07/10 09:50:25;;;;;;;7.47;6.78;;;;;;;55.73;7.92;100093.00;5086498;28;19949;-77
2021/07/10 09:52:51;;;;;;;7.68;7.05;;;;;;;54.78;8.44;100090.22;5079857;28;20044;-76
2021/07/10 09:55:18;;;;;;;9.75;6.60;;;;;;;55.31;7.80;100088.19;5096458;28;20192;-78
2021/07/10 09:57:46;;;;;;;6.70;6.20;;;;;;;55.88;7.93;100084.31;5077913;28;20506;-78
2021/07/10 10:00:15;;;;;;;9.60;8.18;;;;;;;56.30;7.58;100061.09;5080520;28;20072;-77
2021/07/10 10:02:50;;;;;;;8.60;6.88;;;;;;;56.56;7.44;100090.06;5096552;28;20035;-77
2021/07/10 10:05:28;;;;;;;7.68;7.00;;;;;;;56.38;6.80;100083.50;5095046;28;20051;-78
2021/07/10 10:07:56;;;;;;;7.22;6.63;;;;;;;56.59;7.02;100085.00;5095006;28;20090;-80
2021/07/10 10:10:23;;;;;;;7.03;6.53;;;;;;;56.86;6.67;100076.47;5091349;28;20088;-77
2021/07/10 10:13:14;;;;;;;7.85;7.20;;;;;;;57.02;6.82;100078.88;5076271;28;20036;-79
2021/07/10 10:15:43;;;;;;;8.32;7.50;;;;;;;56.35;7.48;100063.78;5113218;28;20048;-79
2021/07/10 10:18:11;;;;;;;8.93;8.07;;;;;;;55.14;7.22;100052.56;5115096;28;20050;-78
2021/07/10 10:20:39;;;;;;;7.55;6.97;;;;;;;54.90;8.24;100066.63;5113778;28;20656;-77
2021/07/10 10:23:07;;;;;;;13.43;12.33;;;;;;;55.16;7.78;100069.81;5099965;28;20040;-77
2021/07/10 10:25:34;;;;;;;9.90;8.90;;;;;;;54.99;7.88;100064.84;5101205;28;20044;-79
2021/07/10 10:28:03;;;;;;;9.02;8.32;;;;;;;54.54;8.00;100058.88;5073549;28;20107;-77
2021/07/10 10:30:34;;;;;;;8.43;7.65;;;;;;;53.73;8.31;100058.56;5116021;28;20070;-78
2021/07/10 10:33:01;;;;;;;8.20;7.40;;;;;;;52.60;9.22;100035.50;5114803;28;20124;-78
2021/07/10 10:35:27;;;;;;;10.02;9.23;;;;;;;51.73;9.66;100051.50;5116525;28;20040;-78
2021/07/10 10:37:53;;;;;;;7.25;6.57;;;;;;;50.76;10.04;100047.69;5116163;28;20055;-78
2021/07/10 10:40:26;;;;;;;7.72;7.10;;;;;;;49.49;10.86;100025.72;5115512;28;20055;-80
2021/07/10 10:42:55;;;;;;;8.18;7.05;;;;;;;48.22;11.28;100040.59;5081233;28;20058;-77
2021/07/10 10:45:29;;;;;;;8.93;6.75;;;;;;;47.21;12.31;100035.13;5080776;28;20069;-77
2021/07/10 10:47:55;;;;;;;11.25;6.80;;;;;;;46.51;12.92;100033.59;5102558;28;20040;-79
2021/07/10 10:50:27;;;;;;;8.70;6.78;;;;;;;45.94;13.56;100041.50;5081373;28;20028;-79
2021/07/10 10:52:56;;;;;;;9.48;7.53;;;;;;;45.58;14.16;100043.47;5097818;28;20093;-77
2021/07/10 10:55:28;;;;;;;7.43;6.72;;;;;;;45.17;14.31;100043.31;5104471;28;20095;-78
2021/07/10 10:57:58;;;;;;;7.95;7.00;;;;;;;44.36;14.91;100039.00;5062155;28;20094;-78
2021/07/10 11:00:36;;;;;;;10.63;9.75;;;;;;;43.91;15.19;100036.59;5078598;28;20092;-78
2021/07/10 11:03:04;;;;;;;7.35;6.75;;;;;;;43.64;15.58;100036.91;5095750;28;20043;-78
2021/07/10 11:05:33;;;;;;;7.57;6.97;;;;;;;43.46;15.74;100038.53;5095768;28;20071;-77
2021/07/10 11:08:18;;;;;;;7.85;7.07;;;;;;;43.24;16.08;100034.53;5097371;28;20093;-78
2021/07/10 11:10:58;;;;;;;6.55;6.05;;;;;;;42.65;16.46;100037.44;5045708;28;20075;-79
2021/07/10 11:13:32;;;;;;;9.27;6.80;;;;;;;42.18;16.68;100033.03;5058803;28;20032;-77
2021/07/10 11:16:06;;;;;;;9.43;7.25;;;;;;;42.17;16.49;100025.03;5058218;28;20047;-78
2021/07/10 11:18:56;;;;;;;7.88;7.03;;;;;;;42.21;16.85;100035.34;5072989;28;20040;-78
2021/07/10 11:21:34;;;;;;;7.72;7.03;;;;;;;41.89;17.46;100029.75;5077839;28;20041;-78
2021/07/10 11:24:16;;;;;;;9.10;8.20;;;;;;;41.32;17.87;100034.84;5074890;28;20090;-79
2021/07/10 11:26:54;;;;;;;10.48;7.50;;;;;;;41.16;18.27;100026.06;5057361;28;20044;-77
2021/07/10 11:29:21;;;;;;;10.25;7.85;;;;;;;41.00;18.37;100023.72;5075394;28;20044;-78
2021/07/10 11:31:49;;;;;;;8.55;7.75;;;;;;;40.66;19.04;100027.25;5074876;28;20135;-78